Latest Weather Observations for Rottnest Island

IDW60801

Issued at 9:33 am WST Friday 14 May 2021 (issued every 10 minutes, with the page automatically refreshed every 10 minutes)

About weather observations | Map of weather stations | Latest weather observations for WA | Other Formats
Station Details ID: 009193 Name: ROTTNEST ISLAND Lat: -32.01 Lon: 115.50 Height: 43.1 m
Data from the previous 72 hours. | See also: Recent months at Rottnest Island
Date/Time
WST
Temp
°C
App
Temp
°C
Dew
Point
°C
Rel
Hum
%
Delta-T
°C
Wind Press
QNH
hPa
Press
MSL
hPa
Rain since
9am
mm
Dir  Spd
km/h
Gust
km/h
Spd
kts
Gust
kts
14/09:30am 16.8 12.9 9.5 62 3.8 E 20 30 11 16 1024.0 1023.9 0.0
14/09:00am 16.5 12.7 9.2 62 3.8 E 19 28 10 15 1024.1 1024.0 0.2
14/08:30am 16.1 10.6 9.1 63 3.6 ENE 28 39 15 21 1023.6 1023.5 0.2
14/08:00am 16.0 10.8 9.0 63 3.6 ENE 26 35 14 19 1023.2 1023.1 0.2
14/07:30am 15.9 10.4 9.1 64 3.5 E 28 39 15 21 1022.8 1022.7 0.2
14/07:00am 15.8 10.2 8.8 63 3.6 E 28 37 15 20 1022.7 1022.6 0.2
14/06:30am 15.7 9.7 8.7 63 3.6 ENE 30 43 16 23 1022.6 1022.5 0.2
14/06:00am 15.7 10.5 8.9 64 3.5 ENE 26 35 14 19 1022.7 1022.6 0.2
14/05:30am 15.9 9.9 8.6 62 3.7 ENE 30 43 16 23 1022.5 1022.4 0.2
14/05:00am 15.9 8.9 8.6 62 3.7 E 35 46 19 25 1022.0 1021.9 0.2
14/04:30am 15.8 9.8 8.5 62 3.7 E 30 41 16 22 1022.2 1022.1 0.0
14/04:00am 15.4 10.7 9.3 67 3.1 E 24 39 13 21 1022.2 1022.1 0.0
14/03:30am 15.5 10.8 9.2 66 3.2 E 24 37 13 20 1022.6 1022.5 0.0
14/03:00am 16.1 11.3 8.8 62 3.7 E 24 37 13 20 1022.8 1022.7 0.0
14/02:30am 16.1 11.2 8.3 60 4.0 E 24 41 13 22 1022.9 1022.8 0.0
14/02:00am 16.2 9.7 8.2 59 4.0 E 32 43 17 23 1022.8 1022.7 0.0
14/01:38am 16.3 10.2 8.3 59 4.1 E 30 52 16 28 1022.7 1022.6 0.0
14/01:30am 16.1 10.4 8.3 60 4.0 E 28 39 15 21 1023.1 1023.0 0.0
14/01:00am 16.3 10.2 8.3 59 4.1 E 30 41 16 22 1022.8 1022.7 0.0
14/12:30am 16.5 10.8 8.2 58 4.2 E 28 43 15 23 1023.4 1023.3 0.0
14/12:00am 16.2 11.4 8.7 61 3.8 E 24 35 13 19 1023.5 1023.4 0.0
 
Date/Time
WST
Temp
°C
App
Temp
°C
Dew
Point
°C
Rel
Hum
%
Delta-T
°C
Wind Press
QNH
hPa
Press
MSL
hPa
Rain since
9am
mm
Dir  Spd
km/h
Gust
km/h
Spd
kts
Gust
kts
13/11:30pm 16.3 11.7 8.3 59 4.1 E 22 30 12 16 1023.8 1023.7 0.0
13/11:00pm 16.6 12.5 8.6 59 4.1 E 20 30 11 16 1023.6 1023.5 0.0
13/10:30pm 16.8 12.4 8.8 59 4.1 E 22 32 12 17 1023.7 1023.6 0.0
13/10:00pm 16.7 10.9 8.1 57 4.3 E 28 37 15 20 1023.9 1023.8 0.0
13/09:30pm 17.1 10.9 8.0 55 4.6 E 30 41 16 22 1023.7 1023.6 0.0
13/09:00pm 17.2 11.8 8.1 55 4.6 ESE 26 41 14 22 1023.8 1023.7 0.0
13/08:30pm 17.1 11.8 8.3 56 4.5 E 26 35 14 19 1023.7 1023.6 0.0
13/08:00pm 17.3 12.8 8.4 56 4.5 ESE 22 37 12 20 1023.8 1023.7 0.0
13/07:30pm 17.6 13.5 8.5 55 4.7 ESE 20 28 11 15 1023.5 1023.4 0.0
13/07:00pm 17.9 12.2 8.5 54 4.8 E 28 39 15 21 1023.4 1023.3 0.0
13/06:30pm 18.0 13.1 8.6 54 4.9 E 24 39 13 21 1023.4 1023.3 0.0
13/06:00pm 18.2 14.4 9.0 55 4.8 ESE 19 30 10 16 1023.1 1023.0 0.0
13/05:30pm 18.6 14.9 9.4 55 4.8 ESE 19 30 10 16 1022.8 1022.7 0.0
13/05:00pm 18.6 14.5 8.8 53 5.1 ESE 20 30 11 16 1022.6 1022.5 0.0
13/04:30pm 19.2 14.8 8.8 51 5.4 E 22 32 12 17 1022.5 1022.4 0.0
13/04:00pm 19.5 15.5 9.1 51 5.5 ESE 20 28 11 15 1022.6 1022.5 0.0
13/03:30pm 19.7 15.8 9.3 51 5.5 ESE 20 30 11 16 1022.6 1022.5 0.0
13/03:00pm 19.9 16.1 9.2 50 5.6 ESE 19 28 10 15 1022.3 1022.2 0.0
13/02:30pm 20.3 16.0 9.2 49 5.9 E 22 32 12 17 1022.5 1022.4 0.0
13/02:00pm 19.8 15.4 8.8 49 5.8 ESE 22 37 12 20 1022.2 1022.1 0.0
13/01:30pm 19.6 15.1 8.6 49 5.7 ESE 22 35 12 19 1022.3 1022.2 0.0
13/01:00pm 19.0 14.8 8.4 50 5.5 ESE 20 32 11 17 1022.9 1022.8 0.0
13/12:30pm 18.7 14.6 8.7 52 5.2 ESE 20 32 11 17 1023.6 1023.5 0.0
13/12:00pm 18.0 13.4 8.0 52 5.1 ESE 22 32 12 17 1024.3 1024.2 0.0
13/11:30am 17.6 13.4 8.2 54 4.8 ESE 20 33 11 18 1024.6 1024.5 0.0
13/11:00am 17.3 11.9 7.9 54 4.7 E 26 39 14 21 1025.2 1025.1 0.0
13/10:30am 16.4 10.0 7.1 54 4.6 E 30 44 16 24 1025.4 1025.3 0.0
13/10:00am 16.3 9.0 7.3 55 4.5 E 35 48 19 26 1025.3 1025.2 0.0
13/09:30am 16.0 9.7 7.2 56 4.4 E 30 43 16 23 1025.5 1025.4 0.0
13/09:10am 15.6 9.2 7.1 57 4.2 E 30 48 16 26 1025.6 1025.5 0.0
13/09:00am 15.8 9.9 7.6 58 4.1 E 28 44 15 24 1025.9 1025.8 0.0
13/08:30am 14.6 8.1 6.7 59 3.8 E 30 48 16 26 1025.8 1025.7 0.0
13/08:28am 14.6 8.1 6.7 59 3.8 E 30 48 16 26 1025.8 1025.7 0.0
13/08:00am 14.1 7.0 6.5 60 3.6 E 33 48 18 26 1025.5 1025.4 0.0
13/07:53am 14.1 7.6 6.5 60 3.7 E 30 48 16 26 1025.3 1025.2 0.0
13/07:30am 14.0 7.5 6.4 60 3.7 ESE 30 43 16 23 1025.2 1025.1 0.0
13/07:00am 13.9 8.5 6.5 61 3.5 ESE 24 41 13 22 1025.1 1025.0 0.0
13/06:30am 13.5 8.5 6.4 62 3.4 ESE 22 35 12 19 1025.3 1025.2 0.0
13/06:00am 13.3 8.3 6.4 63 3.3 ESE 22 33 12 18 1025.0 1024.9 0.0
13/05:30am 13.3 8.0 6.6 64 3.2 ESE 24 37 13 20 1025.0 1024.9 0.0
13/05:00am 13.3 7.2 6.6 64 3.2 ESE 28 44 15 24 1024.8 1024.7 0.0
13/04:30am 13.4 8.1 6.7 64 3.2 ESE 24 41 13 22 1024.8 1024.7 0.0
13/04:00am 13.5 7.8 6.6 63 3.3 ESE 26 41 14 22 1024.8 1024.7 0.0
13/03:30am 13.7 8.4 7.0 64 3.3 ESE 24 35 13 19 1024.6 1024.5 0.0
13/03:00am 13.9 8.6 7.0 63 3.3 ESE 24 37 13 20 1024.7 1024.6 0.0
13/02:30am 13.9 9.0 6.7 62 3.5 ESE 22 37 12 20 1024.6 1024.5 0.0
13/02:00am 14.2 8.9 6.8 61 3.6 ESE 24 37 13 20 1024.8 1024.7 0.0
13/01:30am 14.5 9.2 6.6 59 3.8 ESE 24 37 13 20 1024.4 1024.3 0.0
13/01:00am 14.8 9.9 6.9 59 3.8 ESE 22 35 12 19 1024.6 1024.5 0.0
13/12:30am 15.1 10.7 7.2 59 3.9 ESE 20 32 11 17 1024.6 1024.5 0.0
13/12:00am 15.2 10.4 7.5 60 3.8 ESE 22 39 12 21 1024.5 1024.4 0.0
 
Date/Time
WST
Temp
°C
App
Temp
°C
Dew
Point
°C
Rel
Hum
%
Delta-T
°C
Wind Press
QNH
hPa
Press
MSL
hPa
Rain since
9am
mm
Dir  Spd
km/h
Gust
km/h
Spd
kts
Gust
kts
12/11:30pm 15.4 10.7 7.7 60 3.8 ESE 22 35 12 19 1024.3 1024.2 0.0
12/11:00pm 15.6 11.0 8.1 61 3.8 SE 22 32 12 17 1024.2 1024.1 0.0
12/10:30pm 15.9 11.2 7.9 59 4.0 ESE 22 35 12 19 1024.2 1024.1 0.0
12/10:00pm 16.2 11.4 8.7 61 3.8 ESE 24 37 13 20 1024.1 1024.0 0.0
12/09:30pm 16.2 11.8 8.9 62 3.8 SE 22 33 12 18 1024.0 1023.9 0.0
12/09:00pm 16.4 12.1 9.3 63 3.7 SE 22 37 12 20 1023.9 1023.8 0.0
12/08:30pm 16.6 11.2 9.5 63 3.7 SE 28 43 15 23 1023.8 1023.7 0.0
12/08:00pm 16.6 11.5 9.3 62 3.8 SE 26 43 14 23 1023.7 1023.6 0.0
12/07:30pm 16.8 11.5 10.0 64 3.6 SE 28 44 15 24 1023.5 1023.4 0.0
12/07:01pm 17.1 11.7 9.5 61 4.0 SE 28 46 15 25 1022.8 1022.7 0.0
12/07:00pm 17.0 11.6 9.4 61 4.0 SE 28 44 15 24 1023.0 1022.9 0.0
12/06:51pm 17.1 11.0 9.8 62 3.8 SE 32 50 17 27 1022.8 1022.7 0.0
12/06:30pm 17.2 11.1 10.6 65 3.5 SE 33 44 18 24 1022.5 1022.4 0.0
12/06:00pm 17.4 10.3 11.0 66 3.4 SE 39 50 21 27 1021.9 1021.8 0.0
12/05:30pm 17.6 10.6 12.5 72 2.8 SE 41 54 22 29 1021.5 1021.4 0.0
12/05:00pm 18.1 11.1 12.5 70 3.1 SE 41 54 22 29 1021.0 1020.9 0.0
12/04:30pm 18.5 11.1 12.9 70 3.1 SE 44 59 24 32 1020.4 1020.3 0.0
12/04:00pm 19.6 13.2 14.2 71 3.1 SE 41 50 22 27 1020.2 1020.1 0.0
12/03:30pm 19.9 13.3 13.8 68 3.5 SE 41 50 22 27 1019.8 1019.7 0.0
12/03:00pm 20.3 15.0 14.2 68 3.5 SE 35 46 19 25 1019.7 1019.6 0.0
12/02:30pm 20.2 14.5 14.1 68 3.5 SE 37 48 20 26 1019.4 1019.3 0.0
12/02:00pm 20.5 14.8 15.1 71 3.2 SE 39 48 21 26 1019.2 1019.1 0.0
12/01:30pm 20.5 14.5 15.5 73 3.0 SE 41 48 22 26 1019.0 1018.9 0.0
12/01:00pm 20.5 14.4 16.7 79 2.3 SE 44 57 24 31 1018.6 1018.5 0.0
12/12:30pm 20.2 15.0 17.4 84 1.7 SSE 41 52 22 28 1018.9 1018.8 0.0
12/12:00pm 20.1 15.0 18.6 91 0.9 SSE 43 52 23 28 1019.1 1019.0 0.0
12/11:30am 19.7 15.5 19.0 96 0.4 S 39 50 21 27 1019.2 1019.1 0.0
12/11:00am 20.8 18.8 20.0 95 0.5 S 30 37 16 20 1019.2 1019.1 0.0
12/10:42am 21.0 19.4 20.0 94 0.6 SSE 28 39 15 21 1019.2 1019.1 0.0
12/10:30am 21.1 22.4 20.9 99 0.1 SSE 15 19 8 10 1019.4 1019.3 0.0
12/10:00am 20.5 22.0 20.5 100 0.0 SE 13 15 7 8 1019.3 1019.2 0.0
12/09:30am 21.0 23.1 21.0 100 0.0 SE 11 15 6 8 1019.0 1018.9 0.0
12/09:00am 20.8 22.4 20.8 100 0.0 SE 13 17 7 9 1018.9 1018.8 0.0
12/08:30am 21.0 22.7 21.0 100 0.0 SE 13 15 7 8 1018.5 1018.4 0.0
12/08:00am 20.5 22.0 20.5 100 0.0 SE 13 15 7 8 1018.1 1018.0 0.0
12/07:30am 20.6 22.1 20.6 100 0.0 SE 13 19 7 10 1017.6 1017.5 0.0
12/07:00am 20.5 21.2 20.5 100 0.0 S 17 20 9 11 1017.0 1016.9 0.0
12/06:30am 20.6 21.0 20.6 100 0.0 S 19 22 10 12 1016.8 1016.7 0.0
12/06:00am 20.5 21.2 20.5 100 0.0 SSW 17 20 9 11 1016.5 1016.4 0.0
12/05:30am 20.7 21.1 20.7 100 0.0 SSW 19 22 10 12 1016.4 1016.3 0.0
12/05:00am 20.5 22.0 20.5 100 0.0 SW 13 15 7 8 1016.2 1016.1 0.0
12/04:30am 20.3 21.7 20.3 100 0.0 SSW 13 20 7 11 1015.8 1015.7 0.0
12/04:00am 21.3 24.5 21.3 100 0.0 NW 6 7 3 4 1015.5 1015.4 0.0
12/03:30am 21.2 24.2 21.2 100 0.0 NW 7 9 4 5 1015.5 1015.4 0.0
12/03:00am 21.2 23.4 21.2 100 0.0 NW 11 11 6 6 1015.7 1015.6 0.0
12/02:30am 21.1 23.6 21.1 100 0.0 NW 9 11 5 6 1015.6 1015.5 0.0
12/02:00am 21.2 24.2 21.2 100 0.0 NW 7 11 4 6 1015.7 1015.6 0.0
12/01:30am 20.9 23.7 20.9 100 0.0 NW 7 13 4 7 1015.6 1015.5 0.0
12/01:00am 20.9 23.3 20.9 100 0.0 NW 9 13 5 7 1015.4 1015.3 0.0
12/12:30am 20.7 22.7 20.7 100 0.0 NW 11 13 6 7 1015.5 1015.4 0.0
12/12:00am 20.5 22.7 20.5 100 0.0 NW 9 11 5 6 1015.5 1015.4 0.0
 
Date/Time
WST
Temp
°C
App
Temp
°C
Dew
Point
°C
Rel
Hum
%
Delta-T
°C
Wind Press
QNH
hPa
Press
MSL
hPa
Rain since
9am
mm
Dir  Spd
km/h
Gust
km/h
Spd
kts
Gust
kts
11/11:30pm 21.2 23.3 21.0 99 0.1 NW 11 13 6 7 1015.5 1015.4 0.0
11/11:00pm 21.2 23.2 20.7 97 0.3 NW 11 13 6 7 1015.6 1015.5 0.0
11/10:30pm 21.1 22.9 20.3 95 0.5 NW 11 13 6 7 1015.7 1015.6 0.0
11/10:00pm 21.5 23.2 20.1 92 0.9 NW 11 13 6 7 1015.8 1015.7 0.0
11/09:30pm 21.6 22.8 19.9 90 1.1 NW 13 15 7 8 1015.8 1015.7 0.0
11/09:00pm 21.7 22.4 19.6 88 1.3 NW 15 17 8 9 1015.8 1015.7 0.0
11/08:30pm 21.9 22.5 19.5 86 1.5 NW 15 17 8 9 1015.7 1015.6 0.0
11/08:00pm 22.1 22.7 19.5 85 1.7 NW 15 19 8 10 1015.7 1015.6 0.0
11/07:30pm 22.2 22.4 19.4 84 1.8 NW 17 20 9 11 1015.7 1015.6 0.0
11/07:00pm 22.2 22.5 18.8 81 2.1 NW 15 19 8 10 1015.4 1015.3 0.0
11/06:30pm 22.2 21.9 18.2 78 2.5 NW 17 19 9 10 1015.3 1015.2 0.0
11/06:00pm 22.2 21.7 17.8 76 2.7 NW 17 20 9 11 1015.1 1015.0 0.0
11/05:30pm 22.3 21.6 17.4 74 3.0 NW 17 20 9 11 1015.0 1014.9 0.0
11/05:00pm 22.6 21.5 17.3 72 3.3 NW 19 24 10 13 1015.1 1015.0 0.0
11/04:30pm 23.1 21.6 16.4 66 4.1 NNW 19 24 10 13 1015.1 1015.0 0.0
11/04:00pm 23.5 20.9 15.8 62 4.7 NNW 24 28 13 15 1015.1 1015.0 0.0
11/03:30pm 24.6 21.5 15.5 57 5.5 NNW 26 32 14 17 1015.2 1015.1 0.0
11/03:00pm 23.9 20.6 14.9 57 5.4 NNW 26 32 14 17 1015.2 1015.1 0.0
11/02:30pm 25.1 21.3 13.6 49 6.8 N 26 32 14 17 1015.2 1015.1 0.0
11/02:00pm 25.0 22.0 14.8 53 6.1 N 24 30 13 16 1015.4 1015.3 0.0
11/01:30pm 25.0 21.2 14.8 53 6.1 NNW 28 32 15 17 1015.9 1015.8 0.0
11/01:00pm 25.0 21.4 14.2 51 6.4 N 26 32 14 17 1016.1 1016.0 0.0
11/12:30pm 24.2 19.5 13.1 50 6.4 N 30 35 16 19 1016.4 1016.3 0.0
11/12:00pm 23.9 19.0 12.5 49 6.5 N 30 37 16 20 1017.0 1016.9 0.0
11/11:30am 23.2 18.1 11.9 49 6.4 N 30 37 16 20 1017.5 1017.4 0.0
11/11:00am 23.2 18.3 12.5 51 6.1 N 30 39 16 21 1017.8 1017.7 0.0
11/10:30am 23.1 18.2 12.7 52 6.0 NNE 30 39 16 21 1018.2 1018.1 0.0
11/10:00am 21.5 15.7 11.5 53 5.6 NNE 33 43 18 23 1018.1 1018.0 0.0

Other formats

Comma delimited format used in spreadsheet applications
http://www.bom.gov.au/fwo/IDW60801/IDW60801.94602.axf

JavaScript Object Notation format (JSON) in row-major order
http://www.bom.gov.au/fwo/IDW60801/IDW60801.94602.json

Data quality

Most of these data are generated automatically and are frequently updated. Quality checks on data are not normally performed. It is possible for incorrect values to appear. Refer to information at About Latest Weather Observations and please check the disclaimer before using these data.